Time;durP1;ratioP1;P1;durP2;ratioP2;P2;SDS_P1;SDS_P2;PMS_P1;PMS_P2;Temp;Humidity;BMP_temperature;BMP_pressure;BME280_temperature;BME280_humidity;BME280_pressure;Samples;Min_cycle;Max_cycle;Signal;HPM_P1;HPM_P2
2022/03/23 00:00:11;;;;;;;9.43;1.27;;;;;;;15.14;nan;101271.78;4897371;29;20941;-87
2022/03/23 00:02:39;;;;;;;6.80;1.60;;;;;;;15.15;nan;101272.63;4888794;29;20982;-87
2022/03/23 00:05:07;;;;;;;8.83;1.60;;;;;;;15.11;nan;101271.34;4884747;29;20461;-88
2022/03/23 00:07:35;;;;;;;12.13;1.97;;;;;;;15.07;nan;101256.31;4900054;29;21019;-88
2022/03/23 00:10:05;;;;;;;5.87;1.67;;;;;;;15.09;nan;101270.72;4900175;29;20468;-87
2022/03/23 00:12:33;;;;;;;8.10;1.67;;;;;;;15.05;nan;101267.53;4915425;29;20451;-87
2022/03/23 00:15:01;;;;;;;4.73;2.30;;;;;;;15.01;nan;101269.00;4918663;29;20487;-87
2022/03/23 00:17:31;;;;;;;3.80;2.00;;;;;;;;;;4935146;29;20460;-88
2022/03/23 00:19:59;;;;;;;6.30;2.10;;;;;;;;;;4918808;29;20793;-87
2022/03/23 00:22:27;;;;;;;5.87;2.27;;;;;;;;;;4919391;29;20451;-87
2022/03/23 00:24:56;;;;;;;5.77;1.43;;;;;;;;;;4934383;29;20786;-87
2022/03/23 00:27:24;;;;;;;3.07;1.00;;;;;;;;;;4934726;29;20494;-87
2022/03/23 00:29:51;;;;;;;5.33;1.33;;;;;;;;;;4902388;29;20449;-87
2022/03/23 00:32:18;;;;;;;12.03;1.90;;;;;;;;;;4908325;29;20464;-87
2022/03/23 00:34:48;;;;;;;4.40;1.17;;;;;;;;;;4933592;29;20954;-87
2022/03/23 00:37:15;;;;;;;2.80;0.90;;;;;;;;;;4917195;29;20457;-88
2022/03/23 00:39:42;;;;;;;3.30;0.87;;;;;;;;;;4910432;29;20494;-87
2022/03/23 00:42:10;;;;;;;5.33;1.20;;;;;;;;;;4919310;29;20451;-88
2022/03/23 00:44:37;;;;;;;5.03;1.00;;;;;;;;;;4918083;29;20446;-87
2022/03/23 00:47:06;;;;;;;5.60;0.97;;;;;;;;;;4933481;29;20842;-90
2022/03/23 00:49:34;;;;;;;9.63;1.23;;;;;;;;;;4924214;29;20460;-87
2022/03/23 00:52:04;;;;;;;7.33;1.13;;;;;;;;;;4916079;29;20774;-88
2022/03/23 00:54:35;;;;;;;6.20;1.27;;;;;;;;;;4896876;29;20485;-89
2022/03/23 00:57:03;;;;;;;2.30;0.97;;;;;;;;;;4900129;29;20523;-87
2022/03/23 00:59:30;;;;;;;24.20;2.33;;;;;;;;;;4915703;29;20490;-87
2022/03/23 01:01:58;;;;;;;7.20;1.20;;;;;;;;;;4933865;29;20946;-88
2022/03/23 01:04:26;;;;;;;7.50;1.13;;;;;;;;;;4904853;29;20450;-88
2022/03/23 01:06:54;;;;;;;5.43;0.87;;;;;;;;;;4914749;29;20483;-88
2022/03/23 01:09:23;;;;;;;6.90;1.13;;;;;;;;;;4916734;29;20948;-88
2022/03/23 01:11:51;;;;;;;3.60;1.10;;;;;;;;;;4917708;29;20448;-87
2022/03/23 01:14:19;;;;;;;3.20;1.30;;;;;;;;;;4904355;29;20544;-88
2022/03/23 01:16:48;;;;;;;7.23;1.40;;;;;;;;;;4915370;29;20935;-89
2022/03/23 01:19:17;;;;;;;6.87;1.80;;;;;;;;;;4925295;29;20510;-88
2022/03/23 01:21:44;;;;;;;8.53;2.03;;;;;;;;;;4917988;29;20440;-89
2022/03/23 01:24:12;;;;;;;6.57;2.10;;;;;;;;;;4918442;29;20448;-87
2022/03/23 01:26:40;;;;;;;9.10;1.90;;;;;;;;;;4900841;29;20461;-88
2022/03/23 01:29:08;;;;;;;9.93;2.70;;;;;;;;;;4921167;29;20832;-87
2022/03/23 01:31:36;;;;;;;12.63;2.40;;;;;;;;;;4918381;29;20447;-88
2022/03/23 01:34:03;;;;;;;10.20;2.20;;;;;;;;;;4933126;29;20460;-87
2022/03/23 01:36:30;;;;;;;7.47;2.23;;;;;;;;;;4917496;29;20999;-88
2022/03/23 01:38:58;;;;;;;13.97;2.57;;;;;;;;;;4924883;29;20574;-89
2022/03/23 01:41:25;;;;;;;9.80;2.30;;;;;;;;;;4933840;29;20452;-88
2022/03/23 01:43:52;;;;;;;8.67;2.40;;;;;;;;;;4935039;29;20467;-89
2022/03/23 01:46:20;;;;;;;11.40;2.83;;;;;;;;;;4918586;29;20452;-88
2022/03/23 01:48:47;;;;;;;13.53;1.60;;;;;;;;;;4918387;29;20522;-88
2022/03/23 01:51:15;;;;;;;8.03;1.40;;;;;;;;;;4918103;29;20969;-88
2022/03/23 01:53:42;;;;;;;13.90;2.17;;;;;;;;;;4933605;29;20543;-88
2022/03/23 01:56:10;;;;;;;13.67;3.00;;;;;;;;;;4937964;29;20444;-88
2022/03/23 01:58:37;;;;;;;10.60;2.40;;;;;;;;;;4921573;29;20531;-88
2022/03/23 02:01:04;;;;;;;10.47;2.73;;;;;;;;;;4920941;29;20456;-88
2022/03/23 02:03:33;;;;;;;8.50;1.63;;;;;;;;;;4935985;29;20458;-88
2022/03/23 02:06:01;;;;;;;8.63;1.30;;;;;;;;;;4937259;29;20975;-88
2022/03/23 02:08:29;;;;;;;5.40;2.37;;;;;;;;;;4929944;29;20492;-88
2022/03/23 02:10:57;;;;;;;12.23;1.60;;;;;;;;;;4902476;29;20455;-88
2022/03/23 02:13:25;;;;;;;9.97;2.07;;;;;;;;;;4918027;29;20452;-88
2022/03/23 02:15:53;;;;;;;8.70;2.00;;;;;;;;;;4920163;29;20445;-88
2022/03/23 02:18:21;;;;;;;13.03;2.43;;;;;;;;;;4918075;29;20979;-88
2022/03/23 02:20:48;;;;;;;10.63;2.50;;;;;;;;;;4924028;29;20459;-88
2022/03/23 02:23:16;;;;;;;14.37;2.37;;;;;;;;;;4921462;29;20448;-87
2022/03/23 02:25:44;;;;;;;7.13;2.03;;;;;;;;;;4908871;29;20818;-89
2022/03/23 02:28:11;;;;;;;7.80;2.23;;;;;;;;;;4917830;29;20999;-88
2022/03/23 02:30:40;;;;;;;14.67;2.43;;;;;;;;;;4929495;29;20479;-88
2022/03/23 02:33:09;;;;;;;7.37;2.40;;;;;;;;;;4937392;29;20448;-88
2022/03/23 02:35:37;;;;;;;12.13;3.00;;;;;;;;;;4919991;29;20448;-88
2022/03/23 02:38:04;;;;;;;12.73;1.73;;;;;;;;;;4936239;29;20458;-89
2022/03/23 02:40:32;;;;;;;9.17;2.13;;;;;;;;;;4918899;29;20451;-87
2022/03/23 02:42:59;;;;;;;7.63;2.00;;;;;;;;;;4909809;29;20842;-88
2022/03/23 02:45:27;;;;;;;9.37;2.17;;;;;;;;;;4917953;29;20563;-88
2022/03/23 02:47:56;;;;;;;10.20;2.07;;;;;;;;;;4912299;29;20476;-88
2022/03/23 02:50:24;;;;;;;12.13;2.77;;;;;;;;;;4918943;29;20452;-88
2022/03/23 03:04:05;;;;;;;14.03;3.40;;;;;;;;;;4936362;29;20440;-88
2022/03/23 03:06:33;;;;;;;11.40;2.63;;;;;;;;;;4936596;29;20861;-88
2022/03/23 03:09:01;;;;;;;11.00;2.20;;;;;;;;;;4911807;29;20487;-89
2022/03/23 03:11:29;;;;;;;7.87;1.63;;;;;;;;;;4916936;29;20528;-87
2022/03/23 03:13:56;;;;;;;8.30;1.80;;;;;;;;;;4897638;29;20544;-90
2022/03/23 03:16:24;;;;;;;9.00;2.10;;;;;;;;;;4908565;29;20491;-89
2022/03/23 03:18:51;;;;;;;11.83;2.53;;;;;;;;;;4897878;29;20464;-88
2022/03/23 03:21:19;;;;;;;7.10;1.60;;;;;;;;;;4897822;29;20461;-88
2022/03/23 03:23:47;;;;;;;9.10;2.10;;;;;;;;;;4900886;29;20441;-88
2022/03/23 03:26:15;;;;;;;7.00;1.90;;;;;;;;;;4905022;29;20452;-88
2022/03/23 03:28:43;;;;;;;7.83;2.00;;;;;;;;;;4934988;29;20479;-87
2022/03/23 03:31:12;;;;;;;5.80;1.80;;;;;;;;;;4919140;29;20451;-87
2022/03/23 03:33:40;;;;;;;9.33;1.60;;;;;;;;;;4936968;29;20825;-87
2022/03/23 03:36:08;;;;;;;12.33;1.87;;;;;;;;;;4918100;29;20445;-87
2022/03/23 03:38:35;;;;;;;10.67;1.83;;;;;;;;;;4900920;29;20449;-89
2022/03/23 03:41:03;;;;;;;9.73;2.40;;;;;;;;;;4917057;29;20798;-89
2022/03/23 03:43:34;;;;;;;5.20;2.00;;;;;;;;;;4907879;29;20479;-88
2022/03/23 03:46:01;;;;;;;10.40;2.00;;;;;;;;;;4935280;29;20452;-87
2022/03/23 03:48:29;;;;;;;9.27;2.30;;;;;;;;;;4919153;29;20487;-87
2022/03/23 03:50:57;;;;;;;8.33;1.80;;;;;;;;;;4919885;29;20448;-88
2022/03/23 03:53:24;;;;;;;8.10;1.60;;;;;;;;;;4919290;29;20511;-88
2022/03/23 03:56:04;;;;;;;6.60;1.87;;;;;;;;;;4899361;29;20484;-87
2022/03/23 03:58:31;;;;;;;9.40;1.40;;;;;;;;;;4905919;29;20888;-88
2022/03/23 04:00:58;;;;;;;6.47;1.33;;;;;;;;;;4934814;29;20456;-89
2022/03/23 04:03:26;;;;;;;6.97;1.57;;;;;;;;;;4919428;29;20454;-88
2022/03/23 04:05:53;;;;;;;11.10;1.80;;;;;;;;;;4919007;29;20550;-89
2022/03/23 04:08:21;;;;;;;10.20;1.53;;;;;;;;;;4935842;29;20994;-88
2022/03/23 04:10:54;;;;;;;12.43;1.80;;;;;;;;;;4925179;29;20452;-89
2022/03/23 04:13:22;;;;;;;6.60;1.60;;;;;;;;;;4916594;29;20819;-88
2022/03/23 04:15:50;;;;;;;6.70;1.63;;;;;;;;;;4917199;29;20912;-88
2022/03/23 04:18:19;;;;;;;9.60;2.00;;;;;;;;;;4900345;29;20901;-87
2022/03/23 04:20:47;;;;;;;7.10;1.70;;;;;;;;;;4917234;29;20535;-88
2022/03/23 04:23:15;;;;;;;6.17;1.73;;;;;;;;;;4930965;29;20483;-87
2022/03/23 04:25:43;;;;;;;7.97;1.87;;;;;;;;;;4935435;29;20447;-88
2022/03/23 04:28:11;;;;;;;4.67;1.47;;;;;;;;;;4931463;29;20483;-88
2022/03/23 04:30:39;;;;;;;6.23;1.77;;;;;;;;;;4915853;29;20476;-88
2022/03/23 04:33:07;;;;;;;8.13;1.80;;;;;;;;;;4900260;29;20439;-88
2022/03/23 04:35:35;;;;;;;4.67;1.63;;;;;;;;;;4897587;29;20484;-87
2022/03/23 04:38:03;;;;;;;8.40;2.37;;;;;;;;;;4916018;29;20467;-88
2022/03/23 04:40:35;;;;;;;6.20;1.47;;;;;;;;;;4909122;29;20468;-88
2022/03/23 04:43:02;;;;;;;9.63;1.40;;;;;;;;;;4935720;29;20459;-88
2022/03/23 04:45:30;;;;;;;3.63;1.40;;;;;;;;;;4910743;29;20538;-87
2022/03/23 04:47:58;;;;;;;6.40;2.20;;;;;;;;;;4933711;29;20538;-87
2022/03/23 04:50:25;;;;;;;8.93;2.57;;;;;;;;;;4906968;29;20827;-87
2022/03/23 04:52:53;;;;;;;4.53;0.90;;;;;;;;;;4896260;29;20481;-87
2022/03/23 04:55:20;;;;;;;6.93;1.60;;;;;;;;;;4900188;29;20599;-87
2022/03/23 04:57:48;;;;;;;2.03;0.70;;;;;;;;;;4916592;29;20465;-87
2022/03/23 05:00:16;;;;;;;7.83;1.73;;;;;;;;;;4916826;29;20829;-87
2022/03/23 05:02:44;;;;;;;5.63;1.50;;;;;;;;;;4899580;29;20449;-88
2022/03/23 05:05:12;;;;;;;5.00;1.17;;;;;;;;;;4915045;29;20441;-89
2022/03/23 05:07:40;;;;;;;3.77;1.50;;;;;;;;;;4906454;29;20475;-88
2022/03/23 05:10:08;;;;;;;3.43;1.37;;;;;;;;;;4935024;29;20483;-89
2022/03/23 05:12:37;;;;;;;4.80;1.40;;;;;;;;;;4901062;29;20540;-88
2022/03/23 05:15:06;;;;;;;8.43;3.13;;;;;;;;;;4930293;29;20792;-88
2022/03/23 05:17:33;;;;;;;4.40;1.33;;;;;;;;;;4934462;29;20447;-89
2022/03/23 05:20:01;;;;;;;4.50;1.90;;;;;;;;;;4918132;29;20456;-87
2022/03/23 05:22:29;;;;;;;3.63;1.10;;;;;;;;;;4926724;29;20939;-88
2022/03/23 05:24:57;;;;;;;10.27;1.53;;;;;;;;;;4914264;29;20455;-89
2022/03/23 05:27:24;;;;;;;4.30;1.20;;;;;;;;;;4934442;29;20814;-88
2022/03/23 05:29:52;;;;;;;4.37;1.40;;;;;;;;;;4919564;29;21065;-89
2022/03/23 05:32:20;;;;;;;7.17;1.50;;;;;;;;;;4938334;29;20542;-89
2022/03/23 05:34:48;;;;;;;9.30;1.40;;;;;;;;;;4922233;29;20550;-87
2022/03/23 05:37:17;;;;;;;6.83;1.83;;;;;;;;;;4921977;29;20451;-88
2022/03/23 05:39:44;;;;;;;14.97;1.90;;;;;;;;;;4921507;29;20451;-89
2022/03/23 05:42:12;;;;;;;7.70;1.53;;;;;;;;;;4937506;29;20447;-88
2022/03/23 05:44:40;;;;;;;8.13;1.50;;;;;;;;;;4936658;29;20535;-88
2022/03/23 05:47:07;;;;;;;5.70;1.50;;;;;;;;;;4922071;29;20528;-88
2022/03/23 05:49:35;;;;;;;9.83;1.37;;;;;;;;;;4919870;29;20621;-87
2022/03/23 05:52:03;;;;;;;8.00;1.53;;;;;;;;;;4918500;29;20449;-88
2022/03/23 05:54:31;;;;;;;6.03;1.50;;;;;;;;;;4918183;29;20452;-87
2022/03/23 05:57:02;;;;;;;7.40;1.70;;;;;;;;;;4918821;29;20961;-88
2022/03/23 05:59:31;;;;;;;6.93;1.30;;;;;;;;;;4900555;29;20505;-89
2022/03/23 06:01:59;;;;;;;7.27;1.60;;;;;;;;;;4937629;29;20528;-89
2022/03/23 06:04:26;;;;;;;10.07;1.40;;;;;;;;;;4920734;29;20861;-88
2022/03/23 06:06:54;;;;;;;11.87;1.60;;;;;;;;;;4921914;29;20464;-88
2022/03/23 06:09:21;;;;;;;9.70;1.60;;;;;;;;;;4921147;29;20483;-89
2022/03/23 06:11:49;;;;;;;5.37;0.97;;;;;;;;;;4919103;29;20952;-87
2022/03/23 06:14:16;;;;;;;9.23;1.97;;;;;;;;;;4884584;29;20438;-88
2022/03/23 06:16:43;;;;;;;7.50;1.90;;;;;;;;;;4918075;29;20449;-87
2022/03/23 06:19:13;;;;;;;5.93;1.30;;;;;;;;;;4934069;29;20503;-88
2022/03/23 06:21:41;;;;;;;2.70;1.10;;;;;;;;;;4921395;29;20478;-88
2022/03/23 06:24:09;;;;;;;5.27;2.10;;;;;;;;;;4904576;29;20456;-89
2022/03/23 06:26:36;;;;;;;5.07;1.40;;;;;;;;;;4918343;29;20504;-87
2022/03/23 06:29:04;;;;;;;6.30;1.30;;;;;;;;;;4912083;29;20480;-88
2022/03/23 06:31:37;;;;;;;4.00;1.13;;;;;;;;;;4921081;29;20439;-88
2022/03/23 06:34:05;;;;;;;6.80;2.40;;;;;;;;;;4920557;29;20444;-88
2022/03/23 06:36:32;;;;;;;12.93;4.57;;;;;;;;;;4920850;29;20459;-88
2022/03/23 06:38:59;;;;;;;21.57;8.50;;;;;;;;;;4919419;29;20448;-87
2022/03/23 06:41:27;;;;;;;23.50;15.00;;;;;;;;;;4921194;29;20452;-87
2022/03/23 06:43:54;;;;;;;14.70;8.57;;;;;;;;;;4917936;29;20536;-87
2022/03/23 06:46:21;;;;;;;7.60;4.00;;;;;;;;;;4902349;29;20460;-88
2022/03/23 06:48:49;;;;;;;7.13;1.70;;;;;;;;;;4917103;29;20531;-88
2022/03/23 06:51:18;;;;;;;5.10;1.80;;;;;;;;;;4898676;29;20492;-88
2022/03/23 06:53:45;;;;;;;5.50;1.40;;;;;;;;;;4889179;29;20449;-87
2022/03/23 06:56:13;;;;;;;5.80;1.97;;;;;;;;;;4901813;29;20460;-88
2022/03/23 06:58:40;;;;;;;7.30;1.67;;;;;;;;;;4912979;29;20460;-87
2022/03/23 07:01:08;;;;;;;4.17;1.50;;;;;;;;;;4936084;29;20519;-88
2022/03/23 07:03:36;;;;;;;8.00;3.00;;;;;;;;;;4920720;29;20503;-88
2022/03/23 07:06:03;;;;;;;9.50;6.43;;;;;;;;;;4913892;29;20445;-88
2022/03/23 07:11:16;;;;;;;7.20;1.87;;;;;;;;;;4903420;29;20846;-88
2022/03/23 07:13:44;;;;;;;8.30;2.07;;;;;;;;;;4911523;29;20457;-88
2022/03/23 07:16:11;;;;;;;7.33;1.20;;;;;;;;;;4917040;29;20443;-88
2022/03/23 07:18:39;;;;;;;12.40;1.67;;;;;;;;;;4932700;29;20453;-88
2022/03/23 07:21:07;;;;;;;5.80;1.80;;;;;;;;;;4916530;29;20552;-88
2022/03/23 07:23:35;;;;;;;3.03;1.40;;;;;;;;;;4931884;29;20986;-86
2022/03/23 07:26:03;;;;;;;6.80;1.73;;;;;;;;;;4905934;29;20543;-88
2022/03/23 07:28:32;;;;;;;5.93;2.40;;;;;;;;;;4909189;29;20936;-89
2022/03/23 07:30:59;;;;;;;8.27;1.27;;;;;;;;;;4918339;29;20445;-88
2022/03/23 07:33:31;;;;;;;9.43;1.37;;;;;;;;;;4916967;29;20448;-88
2022/03/23 07:35:59;;;;;;;6.33;1.70;;;;;;;;;;4915752;29;20562;-86
2022/03/23 07:38:29;;;;;;;6.17;1.67;;;;;;;;;;4916234;29;20983;-87
2022/03/23 07:40:56;;;;;;;9.60;1.70;;;;;;;;;;4914794;29;20486;-86
2022/03/23 07:43:27;;;;;;;6.40;1.87;;;;;;;;;;4915141;29;20471;-87
2022/03/23 07:45:56;;;;;;;9.53;1.37;;;;;;;;;;4917431;29;20567;-86
2022/03/23 07:48:24;;;;;;;5.10;1.47;;;;;;;;;;4918551;29;20927;-86
2022/03/23 07:50:52;;;;;;;7.83;3.47;;;;;;;;;;4915932;29;20480;-86
2022/03/23 07:53:19;;;;;;;3.40;1.60;;;;;;;;;;4916250;29;20457;-86
2022/03/23 07:55:46;;;;;;;6.40;1.80;;;;;;;;;;4917051;29;20449;-87
2022/03/23 07:58:14;;;;;;;9.23;2.07;;;;;;;;;;4916374;29;20441;-87
2022/03/23 08:00:45;;;;;;;4.67;1.43;;;;;;;;;;4915913;29;20817;-86
2022/03/23 08:03:13;;;;;;;5.73;1.90;;;;;;;;;;4917266;29;20445;-86
2022/03/23 08:05:42;;;;;;;6.70;1.53;;;;;;;;;;4923636;29;20452;-87
2022/03/23 08:08:11;;;;;;;8.97;1.93;;;;;;;;;;4935058;29;20480;-86
2022/03/23 08:10:42;;;;;;;12.03;1.97;;;;;;;;;;4930201;29;20491;-88
2022/03/23 08:13:17;;;;;;;8.73;2.20;;;;;;;;;;4900962;29;20819;-86
2022/03/23 08:15:47;;;;;;;16.67;2.77;;;;;;;;;;4930371;29;20454;-86
2022/03/23 08:18:23;;;;;;;6.80;1.87;;;;;;;;;;4929025;29;20462;-86
2022/03/23 08:20:51;;;;;;;6.53;1.70;;;;;;;;;;4931177;29;20554;-86
2022/03/23 08:23:19;;;;;;;5.33;1.20;;;;;;;;;;4932543;29;20967;-87
2022/03/23 08:25:46;;;;;;;6.33;1.97;;;;;;;;;;4919602;29;20440;-86
2022/03/23 08:28:17;;;;;;;5.23;1.40;;;;;;;;;;4935065;29;20444;-87
2022/03/23 08:30:45;;;;;;;5.60;1.97;;;;;;;;;;4934905;29;20496;-86
2022/03/23 08:33:19;;;;;;;8.67;1.33;;;;;;;;;;4928404;29;20452;-90
2022/03/23 08:35:50;;;;;;;5.80;1.50;;;;;;;;;;4916080;29;20476;-86
2022/03/23 08:38:18;;;;;;;4.43;1.40;;;;;;;;;;4900719;29;20444;-86
2022/03/23 08:40:46;;;;;;;8.40;1.80;;;;;;;;;;4900466;29;20437;-87
2022/03/23 08:43:15;;;;;;;4.53;2.00;;;;;;;;;;4931286;29;20453;-87
2022/03/23 08:45:42;;;;;;;5.50;1.10;;;;;;;;;;4915685;29;20460;-86
2022/03/23 08:48:10;;;;;;;3.03;1.07;;;;;;;;;;4923380;29;20475;-89
2022/03/23 08:50:40;;;;;;;7.77;1.47;;;;;;;;;;4916027;29;20492;-94
2022/03/23 08:53:23;;;;;;;5.23;1.40;;;;;;;;;;4900855;29;20449;-93
2022/03/23 08:56:10;;;;;;;3.17;1.40;;;;;;;;;;4916839;29;20548;-95
2022/03/23 08:58:58;;;;;;;6.70;1.17;;;;;;;;;;4917734;29;20453;-95
2022/03/23 09:01:30;;;;;;;4.27;1.63;;;;;;;;;;4901051;29;20460;-94
2022/03/23 09:04:14;;;;;;;4.50;1.63;;;;;;;;;;4917062;29;20437;-94
2022/03/23 09:06:44;;;;;;;2.93;1.20;;;;;;;;;;4904799;29;20477;-94
2022/03/23 09:09:17;;;;;;;7.53;1.70;;;;;;;;;;4904855;29;20516;-92
2022/03/23 09:11:49;;;;;;;5.33;1.20;;;;;;;;;;4904558;29;20543;-93
2022/03/23 09:14:22;;;;;;;8.90;1.73;;;;;;;;;;4919368;29;20858;-93
2022/03/23 09:16:49;;;;;;;7.10;1.50;;;;;;;;;;4920029;29;20449;-94
2022/03/23 09:19:24;;;;;;;4.80;1.80;;;;;;;;;;4905463;29;20504;-92
2022/03/23 09:21:56;;;;;;;4.80;1.23;;;;;;;;;;4905310;29;20542;-92
2022/03/23 09:24:29;;;;;;;3.13;1.23;;;;;;;;;;4921614;29;20971;-93
2022/03/23 09:27:00;;;;;;;6.53;2.07;;;;;;;;;;4905209;29;20484;-93
2022/03/23 09:29:36;;;;;;;6.80;2.73;;;;;;;;;;4920544;29;20484;-91
2022/03/23 09:32:10;;;;;;;4.07;1.90;;;;;;;;;;4921258;29;20532;-93
2022/03/23 09:34:39;;;;;;;4.63;1.90;;;;;;;;;;4905464;29;20444;-92
2022/03/23 09:39:56;;;;;;;6.30;1.73;;;;;;;;;;4938328;29;20454;-92
2022/03/23 09:42:26;;;;;;;8.13;1.70;;;;;;;;;;4914751;29;20445;-89
2022/03/23 09:44:55;;;;;;;7.13;1.67;;;;;;;;;;4919099;29;20476;-89
2022/03/23 09:47:24;;;;;;;6.40;1.73;;;;;;;;;;4937309;29;20444;-92
2022/03/23 09:49:52;;;;;;;5.37;1.70;;;;;;;;;;4904141;29;20504;-92
2022/03/23 09:52:20;;;;;;;5.53;2.07;;;;;;;;;;4903698;29;20453;-92
2022/03/23 09:54:52;;;;;;;3.60;2.33;;;;;;;;;;4923458;29;20454;-85
2022/03/23 09:57:19;;;;;;;7.20;3.30;;;;;;;;;;4933760;29;20448;-87
2022/03/23 09:59:47;;;;;;;7.70;3.27;;;;;;;;;;4919550;29;20480;-88
2022/03/23 10:02:42;;;;;;;5.43;2.20;;;;;;;;;;4916257;29;20445;-88
2022/03/23 10:05:22;;;;;;;4.47;2.07;;;;;;;;;;4919421;29;20452;-89
2022/03/23 10:07:51;;;;;;;5.50;2.30;;;;;;;;;;4950228;29;20511;-88
2022/03/23 10:10:37;;;;;;;2.87;1.50;;;;;;;;;;4937972;29;20489;-88
2022/03/23 10:13:11;;;;;;;6.93;2.17;;;;;;;;;;4928092;29;20453;-87
2022/03/23 10:15:57;;;;;;;3.90;2.07;;;;;;;;;;4917908;29;20447;-87
2022/03/23 10:18:43;;;;;;;4.77;1.77;;;;;;;;;;4900171;29;20453;-88
2022/03/23 10:21:11;;;;;;;6.33;2.50;;;;;;;;;;4900267;29;20438;-87
2022/03/23 10:23:39;;;;;;;5.93;2.63;;;;;;;;;;4933683;29;20451;-88
2022/03/23 10:26:11;;;;;;;8.30;2.30;;;;;;;;;;4932893;29;20555;-87
2022/03/23 10:28:40;;;;;;;3.80;2.20;;;;;;;;;;4926621;29;20485;-88
2022/03/23 10:31:15;;;;;;;7.80;2.20;;;;;;;;;;4934737;29;20554;-88
2022/03/23 10:33:43;;;;;;;4.37;1.50;;;;;;;;;;4924442;29;20441;-88
2022/03/23 10:36:13;;;;;;;7.57;1.40;;;;;;;;;;4914134;29;20456;-88
2022/03/23 10:38:41;;;;;;;3.40;0.80;;;;;;;;;;4908817;29;20444;-88
2022/03/23 10:41:10;;;;;;;1.77;1.10;;;;;;;;;;4903901;29;20463;-87
2022/03/23 10:43:39;;;;;;;2.27;0.80;;;;;;;;;;4899478;29;20450;-88
2022/03/23 10:46:09;;;;;;;1.87;0.73;;;;;;;;;;4919643;29;20452;-88
2022/03/23 10:48:37;;;;;;;1.40;0.80;;;;;;;;;;4937618;29;20432;-89
2022/03/23 10:51:06;;;;;;;3.20;1.23;;;;;;;;;;4924666;29;20488;-87
2022/03/23 10:53:38;;;;;;;2.90;0.97;;;;;;;;;;4919112;29;20830;-88
2022/03/23 10:56:06;;;;;;;2.57;1.33;;;;;;;;;;4934512;29;20444;-89
2022/03/23 10:58:40;;;;;;;1.80;1.00;;;;;;;;;;4936433;29;20448;-87
2022/03/23 11:01:08;;;;;;;1.53;0.90;;;;;;;;;;4936245;29;20455;-88
2022/03/23 11:03:40;;;;;;;2.23;0.97;;;;;;;;;;4905147;29;20451;-88
2022/03/23 11:06:12;;;;;;;8.50;1.33;;;;;;;;;;4897187;29;21773;-87
2022/03/23 11:08:42;;;;;;;5.60;2.97;;;;;;;;;;4914767;29;20551;-88
2022/03/23 11:16:46;;;;;;;3.70;1.00;;;;;;;;;;4918096;29;20507;-87
2022/03/23 11:19:19;;;;;;;2.97;0.60;;;;;;;;;;4915773;29;20991;-87
2022/03/23 11:21:58;;;;;;;3.23;1.13;;;;;;;;;;4913587;29;20468;-87
2022/03/23 11:24:27;;;;;;;2.30;1.00;;;;;;;;;;4907554;29;20528;-87
2022/03/23 11:26:56;;;;;;;2.57;1.07;;;;;;;;;;4915923;29;20544;-87
2022/03/23 11:29:23;;;;;;;4.33;2.03;;;;;;;;;;4931309;29;20531;-88
2022/03/23 11:31:53;;;;;;;2.67;1.10;;;;;;;;;;4918141;29;20495;-88
2022/03/23 11:34:21;;;;;;;4.90;1.20;;;;;;;;;;4907602;29;20493;-89
2022/03/23 11:36:50;;;;;;;4.60;2.50;;;;;;;;;;4915509;29;20456;-90
2022/03/23 11:39:20;;;;;;;3.20;1.27;;;;;;;;;;4904039;29;20459;-90
2022/03/23 11:41:50;;;;;;;3.87;1.60;;;;;;;;;;4910336;29;20456;-90
2022/03/23 11:44:18;;;;;;;3.37;1.90;;;;;;;;;;4918747;29;20441;-89
2022/03/23 11:46:46;;;;;;;5.60;1.50;;;;;;;;;;4914294;29;20465;-90
2022/03/23 11:49:26;;;;;;;3.80;1.63;;;;;;;;;;4915606;29;20456;-88
2022/03/23 11:51:57;;;;;;;2.63;1.10;;;;;;;;;;4915010;29;20500;-87
2022/03/23 11:55:37;;;;;;;5.03;1.23;;;;;;;;;;4909905;29;20461;-88
2022/03/23 11:57:24;;;;;;;11.43;1.70;;;;;;;;;;4916089;29;20948;-88
2022/03/23 11:59:51;;;;;;;5.57;2.20;;;;;;;;;;4931449;29;20970;-87
2022/03/23 12:02:20;;;;;;;6.70;2.20;;;;;;;;;;4914628;29;20459;-88
2022/03/23 12:04:47;;;;;;;8.40;2.60;;;;;;;;;;4911242;29;20469;-87
2022/03/23 12:07:15;;;;;;;12.30;4.20;;;;;;;;;;4918037;29;20483;-88
2022/03/23 12:09:44;;;;;;;8.27;2.87;;;;;;;;;;4902235;29;20452;-88
2022/03/23 12:12:13;;;;;;;10.57;4.00;;;;;;;;;;4906878;29;20492;-87
2022/03/23 12:14:42;;;;;;;7.30;4.03;;;;;;;;;;4899991;29;20457;-88
2022/03/23 12:17:10;;;;;;;11.47;3.57;;;;;;;;;;4916585;29;20441;-88
2022/03/23 12:19:51;;;;;;;8.37;3.07;;;;;;;;;;4898099;29;20450;-89
2022/03/23 12:22:27;;;;;;;6.77;3.17;;;;;;;;;;4917917;29;20496;-89
2022/03/23 12:24:56;;;;;;;12.27;2.53;;;;;;;;;;4920454;29;20507;-89
2022/03/23 12:27:42;;;;;;;6.83;2.60;;;;;;;;;;4916408;29;20947;-89
2022/03/23 12:30:33;;;;;;;4.30;1.60;;;;;;;;;;4917079;29;20583;-88
2022/03/23 12:33:06;;;;;;;4.23;1.70;;;;;;;;;;4915553;29;20548;-89
2022/03/23 12:35:35;;;;;;;4.20;1.87;;;;;;;;;;4882264;29;20521;-88
2022/03/23 12:38:03;;;;;;;5.67;2.10;;;;;;;;;;4908919;29;20465;-88
2022/03/23 12:40:40;;;;;;;4.30;2.70;;;;;;;;;;4900245;29;20453;-89
2022/03/23 12:43:08;;;;;;;7.97;2.53;;;;;;;;;;4916021;29;20436;-88
2022/03/23 12:45:39;;;;;;;11.60;6.40;;;;;;;;;;4896984;29;20795;-88
2022/03/23 12:57:49;;;;;;;13.27;7.07;;;;;;;;;;4911875;29;20464;-88
2022/03/23 12:59:18;;;;;;;14.90;6.27;;;;;;;;;;4921382;29;20460;-88
2022/03/23 13:01:46;;;;;;;6.93;4.90;;;;;;;;;;4904474;29;20551;-88
2022/03/23 13:04:34;;;;;;;58.23;37.20;;;;;;;;;;4904502;29;21243;-89
2022/03/23 13:07:22;;;;;;;38.63;28.67;;;;;;;;;;4931290;29;20514;-88
2022/03/23 13:09:49;;;;;;;4.20;2.53;;;;;;;;;;4914568;29;20540;-89
2022/03/23 13:12:22;;;;;;;1.67;1.00;;;;;;;;;;4899887;29;20488;-88
2022/03/23 13:14:50;;;;;;;4.60;1.00;;;;;;;;;;4899956;29;21009;-88
2022/03/23 13:17:18;;;;;;;1.10;0.40;;;;;;;;;;4915220;29;20472;-86
2022/03/23 13:19:45;;;;;;;2.37;0.70;;;;;;;;;;4915600;29;20540;-86
2022/03/23 13:22:12;;;;;;;2.07;0.73;;;;;;;;;;4915992;29;20464;-86
2022/03/23 13:24:41;;;;;;;3.63;0.90;;;;;;;;;;4899329;29;20548;-86
2022/03/23 13:27:10;;;;;;;1.53;0.70;;;;;;;;;;4914986;29;20445;-87
2022/03/23 13:29:37;;;;;;;1.33;0.50;;;;;;;;;;4899453;29;20477;-86
2022/03/23 13:32:06;;;;;;;2.37;0.83;;;;;;;;;;4898047;29;20480;-85
2022/03/23 13:34:39;;;;;;;2.50;1.10;;;;;;;;;;4915187;29;20476;-88
2022/03/23 13:37:07;;;;;;;2.37;0.77;;;;;;;;;;4918463;29;20865;-86
2022/03/23 13:39:34;;;;;;;4.00;0.93;;;;;;;;;;4906693;29;20446;-87
2022/03/23 13:44:56;;;;;;;4.60;1.20;;;;;;;;;;4925221;29;20456;-88
2022/03/23 13:47:33;;;;;;;3.10;0.80;;;;;;;;;;4917426;29;20472;-87
2022/03/23 13:50:02;;;;;;;8.23;1.10;;;;;;;;;;4910575;29;20506;-87
2022/03/23 13:52:36;;;;;;;3.70;0.90;;;;;;;;;;4887210;29;20456;-87
2022/03/23 13:55:04;;;;;;;1.47;0.70;;;;;;;;;;4923772;29;20444;-89
2022/03/23 13:57:31;;;;;;;3.33;1.00;;;;;;;;;;4906973;29;20952;-89
2022/03/23 13:59:59;;;;;;;3.00;0.83;;;;;;;;;;4920384;29;20884;-90
2022/03/23 14:02:27;;;;;;;2.67;1.27;;;;;;;;;;4903947;29;20448;-90
2022/03/23 14:05:18;;;;;;;2.07;0.80;;;;;;;;;;4906176;29;20860;-89
2022/03/23 14:07:46;;;;;;;1.90;0.70;;;;;;;;;;4903101;29;20468;-89
2022/03/23 14:10:13;;;;;;;1.53;0.70;;;;;;;;;;4903055;29;20885;-90
2022/03/23 14:12:41;;;;;;;2.40;1.00;;;;;;;;;;4906673;29;20452;-89
2022/03/23 14:15:36;;;;;;;2.20;0.60;;;;;;;;;;4887158;29;20549;-89
2022/03/23 14:18:04;;;;;;;2.07;0.70;;;;;;;;;;4915754;29;20811;-89
2022/03/23 14:20:50;;;;;;;1.20;0.40;;;;;;;;;;4921485;29;20448;-90
2022/03/23 14:23:18;;;;;;;2.70;0.60;;;;;;;;;;4913020;29;20468;-89
2022/03/23 14:25:50;;;;;;;1.50;0.53;;;;;;;;;;4938113;29;20452;-89
2022/03/23 14:28:19;;;;;;;7.87;0.87;;;;;;;;;;4923064;29;20484;-90
2022/03/23 14:31:05;;;;;;;1.90;0.57;;;;;;;;;;4902970;29;20968;-91
2022/03/23 14:33:32;;;;;;;3.93;2.37;;;;;;;;;;4902947;29;20959;-89
2022/03/23 14:36:06;;;;;;;2.10;1.10;;;;;;;;;;4914208;29;20820;-88
2022/03/23 14:38:37;;;;;;;2.10;1.40;;;;;;;;;;4923549;29;20521;-91
2022/03/23 14:41:10;;;;;;;2.97;0.87;;;;;;;;;;4926137;29;20980;-91
2022/03/23 14:43:38;;;;;;;2.20;1.00;;;;;;;;;;4922753;29;20470;-92
2022/03/23 14:46:26;;;;;;;6.60;0.80;;;;;;;;;;4922514;29;20437;-92
2022/03/23 14:49:04;;;;;;;2.50;0.57;;;;;;;;;;4923761;29;21038;-91
2022/03/23 14:51:33;;;;;;;7.23;0.90;;;;;;;;;;4937433;29;20531;-91
2022/03/23 14:54:04;;;;;;;3.20;1.00;;;;;;;;;;4921976;29;20444;-91
2022/03/23 14:56:32;;;;;;;1.17;0.63;;;;;;;;;;4922252;29;20440;-91
2022/03/23 14:59:00;;;;;;;2.10;0.70;;;;;;;;;;4922006;29;20440;-91
2022/03/23 15:04:57;;;;;;;1.30;0.57;;;;;;;;;;4938095;29;20419;-88
2022/03/23 15:15:44;;;;;;;2.80;0.83;;;;;;;;;;4936799;29;21016;-90
2022/03/23 15:18:12;;;;;;;3.47;0.60;;;;;;;;;;4936103;29;20909;-88
2022/03/23 15:20:43;;;;;;;4.37;0.83;;;;;;;;;;4921060;29;20460;-88
2022/03/23 15:23:12;;;;;;;3.40;0.90;;;;;;;;;;4937513;29;20468;-89
2022/03/23 15:25:39;;;;;;;1.83;0.60;;;;;;;;;;4936912;29;20495;-88
2022/03/23 15:28:11;;;;;;;2.00;0.57;;;;;;;;;;4921576;29;20971;-90
2022/03/23 15:30:40;;;;;;;1.60;0.67;;;;;;;;;;4937742;29;20444;-88
2022/03/23 15:33:10;;;;;;;7.43;0.90;;;;;;;;;;4936447;29;20444;-87
2022/03/23 15:35:37;;;;;;;0.90;0.40;;;;;;;;;;4936538;29;20447;-89